Flight Track Log - Related Links

Times and Time Zones

All times are in EDT time to prevent confusion due to time zone crossing. See the N63981 flight status page for this flight to view local times or setup timezone preferences in your user account.

Time Position Orientation Groundspeed Altitude Reporting Facility
EDT Latitude Longitude Course Direction KTS MPH feet Rate Location/Type
Wed 07:50:00 PM 33.8549 -81.8463 329° Northwest  Level FlightAware Approximate
Wed 07:51:00 PM 33.8918 -81.8735 326° Northwest  Level FlightAware Approximate
Wed 07:52:00 PM 33.9276 -81.9028 326° Northwest  Level FlightAware Approximate
Wed 07:53:00 PM 33.9634 -81.9321 326° Northwest  Level FlightAware Approximate
Wed 07:54:00 PM 33.9992 -81.9614 326° Northwest  Level FlightAware Approximate
Wed 07:55:00 PM 34.0350 -81.9907 326° Northwest  Level FlightAware Approximate
Wed 07:56:00 PM 34.0710 -82.0198 329° Northwest  Level FlightAware Approximate
Wed 07:57:00 PM 34.1081 -82.0467 329° Northwest  Level FlightAware Approximate
Wed 07:58:00 PM 34.1452 -82.0737 329° Northwest  Level FlightAware Approximate
Wed 07:59:00 PM 34.1823 -82.1007 329° Northwest  Level FlightAware Approximate
Wed 08:00:00 PM 34.2193 -82.1277 329° Northwest  Level FlightAware Approximate
Wed 08:01:00 PM 34.2573 -82.1479 14° North  Level FlightAware Approximate
Wed 08:02:00 PM 34.2993 -82.1354 14° North  Level FlightAware Approximate
Wed 08:03:00 PM 34.3414 -82.1230 14° North  Level FlightAware Approximate
Wed 08:04:00 PM 34.3853 -82.1149 North  Level FlightAware Approximate
Wed 08:05:00 PM 34.4292 -82.1068 North  Level FlightAware Approximate
Wed 08:06:00 PM 34.4731 -82.0986 North  Level FlightAware Approximate
Wed 08:07:00 PM 34.5170 -82.0905 North  Level FlightAware Approximate
Wed 08:08:00 PM 34.5608 -82.0823 North  Level FlightAware Approximate
Wed 08:09:00 PM 34.6048 -82.0742 North  Level FlightAware Approximate
Wed 08:10:00 PM 34.6486 -82.0660 North  Level FlightAware Approximate
Wed 08:11:00 PM 34.6925 -82.0578 North  Level FlightAware Approximate
Wed 08:12:00 PM 34.7364 -82.0496 North  Level FlightAware Approximate
Wed 08:13:00 PM 34.7803 -82.0414 North  Level FlightAware Approximate
Wed 08:14:00 PM 34.8242 -82.0332 North  Level FlightAware Approximate
Wed 08:14:44 PM 34.8222 -81.9564 North 176 203 7,000  Level Atlanta Center
Wed 08:16:44 PM 34.9100 -81.9592 23° Northeast 172 198 7,000  Level Atlanta Center
Wed 08:17:00 PM 34.9559 -82.0086 North  Level FlightAware Approximate
Wed 08:17:44 PM 34.9661 -81.9578 North 181 208 7,000  Level Atlanta Center
Wed 08:18:00 PM 34.9997 -82.0003 North  Level FlightAware Approximate
Wed 08:18:44 PM 35.0119 -81.9542 North 180 207 7,000  Level Atlanta Center
Wed 08:19:44 PM 35.0581 -81.9556 359° North 174 200 7,000  Level Atlanta Center
Wed 08:20:00 PM 35.0875 -81.9838 North  Level FlightAware Approximate
Wed 08:20:44 PM 35.1039 -81.9544 North 190 219 7,000  Level Atlanta Center
Wed 08:21:44 PM 35.1478 -81.9558 359° North 179 206 7,000  Level Atlanta Center
Wed 08:22:44 PM 35.1936 -81.9547 North 171 197 7,000  Level Atlanta Center
Wed 08:23:44 PM 35.2394 -81.9561 359° North 165 190 7,000  Level Atlanta Center
Wed 08:24:44 PM 35.2856 -81.9575 359° North 160 184 7,000  Level Atlanta Center
Wed 08:25:44 PM 35.3314 -81.9539 North 160 184 7,000  Level Atlanta Center
Wed 08:26:44 PM 35.3772 -81.9553 359° North 160 184 7,000  Level Atlanta Center
Wed 08:27:44 PM 35.4211 -81.9542 North 160 184 7,000  Level Atlanta Center
Wed 08:30:44 PM 35.5483 -81.9558 27° Northeast 155 178 7,000  Level Atlanta Center
Wed 08:31:44 PM 35.5875 -81.9294 29° Northeast 155 178 7,000  Level Atlanta Center
Wed 08:32:44 PM 35.6225 -81.9006 34° Northeast 155 178 7,000  Level Atlanta Center
Wed 08:33:44 PM 35.6639 -81.8789 23° Northeast 155 178 7,000  Level Atlanta Center
Wed 08:34:44 PM 35.7053 -81.8625 18° North 155 178 7,000  Level Atlanta Center
Wed 08:35:44 PM 35.7464 -81.8331 30° Northeast 155 178 7,000  Level Atlanta Center
Wed 08:36:00 PM 35.7621 -81.8019 27° Northeast  Level FlightAware Approximate
Wed 08:36:44 PM 35.7833 -81.7989 37° Northeast 160 184 7,000  Level Atlanta Center
Wed 08:37:44 PM 35.8183 -81.7697 34° Northeast 160 184 7,000  Level Atlanta Center
Wed 08:38:44 PM 35.8553 -81.7381 35° Northeast 160 184 7,000  Level Atlanta Center
Wed 08:39:44 PM 35.8922 -81.7061 35° Northeast 160 184 7,000  Level Atlanta Center
Wed 08:40:44 PM 35.9269 -81.6744 36° Northeast 160 184 7,000  Level Atlanta Center
Wed 08:41:44 PM 35.9639 -81.6425 35° Northeast 155 178 7,000  Level Atlanta Center
Wed 08:42:44 PM 36.0031 -81.6183 27° Northeast 155 178 7,000  Level Atlanta Center
Wed 08:43:44 PM 36.0422 -81.5992 22° Northeast 155 178 7,000  Level Atlanta Center
Wed 08:44:44 PM 36.0817 -81.5800 21° North 150 173 7,000  Level Atlanta Center
Wed 08:45:44 PM 36.1189 -81.5608 23° Northeast 150 173 7,000  Level Atlanta Center
Wed 08:46:44 PM 36.1558 -81.5417 23° Northeast 150 173 7,000  Level Atlanta Center
Wed 08:47:44 PM 36.1950 -81.5172 27° Northeast 150 173 7,000  Level Atlanta Center
Wed 08:48:44 PM 36.2342 -81.4931 26° Northeast 150 173 7,000  Level Atlanta Center
Wed 08:49:44 PM 36.2711 -81.4661 30° Northeast 150 173 7,000  Level Atlanta Center
Wed 08:50:44 PM 36.3103 -81.4417 27° Northeast 155 178 7,000  Level Atlanta Center
Wed 08:51:44 PM 36.3514 -81.4169 26° Northeast 155 178 7,000  Level Atlanta Center
Wed 08:52:44 PM 36.3906 -81.3925 27° Northeast 155 178 7,000  Level Atlanta Center
Wed 08:53:44 PM 36.4297 -81.3656 29° Northeast 155 178 7,000  Level Atlanta Center
Wed 08:55:44 PM 36.5058 -81.3192 26° Northeast 155 178 7,000  Level Atlanta Center
Wed 08:56:44 PM 36.5469 -81.2944 26° Northeast 155 178 7,000  Level Atlanta Center
Wed 08:57:44 PM 36.5858 -81.2697 27° Northeast 155 178 7,000  Level Atlanta Center
Wed 08:58:44 PM 36.6250 -81.2453 27° Northeast 155 178 7,000  Level Atlanta Center
Wed 08:59:44 PM 36.6642 -81.2206 27° Northeast 155 178 7,000  Level Atlanta Center
Wed 09:00:44 PM 36.7031 -81.1983 25° Northeast 155 178 7,000  Level Atlanta Center
Wed 09:01:44 PM 36.7422 -81.1736 27° Northeast 155 178 7,000  Level Atlanta Center
Wed 09:03:15 PM 36.8056 -81.1356 26° Northeast 158 182 7,000  Level Indianapolis Center
Wed 09:04:44 PM 36.8572 -81.0994 29° Northeast 155 178 7,000  Level Atlanta Center
Wed 09:05:44 PM 36.8964 -81.0772 24° Northeast 155 178 7,000  Level Atlanta Center
Wed 09:06:44 PM 36.9394 -81.0522 25° Northeast 155 178 7,000  Level Atlanta Center
Wed 09:10:07 PM 37.0700 -80.9725 26° Northeast 155 178 7,000  Level Washington Center
Wed 09:11:08 PM 37.1086 -80.9467 28° Northeast 155 178 7,000  Level Washington Center
Wed 09:13:07 PM 37.1836 -80.9050 24° Northeast 155 178 7,000  Level Washington Center
Wed 09:14:08 PM 37.2222 -80.8789 28° Northeast 155 178 7,000  Level Washington Center
Wed 09:15:08 PM 37.2608 -80.8528 28° Northeast 155 178 7,000  Level Washington Center
Wed 09:16:06 PM 37.2997 -80.8242 30° Northeast 155 178 7,000  Level Washington Center
Wed 09:17:07 PM 37.3403 -80.8008 25° Northeast 155 178 7,000  Level Washington Center
Wed 09:19:06 PM 37.4175 -80.7564 25° Northeast 155 178 7,000  Level Washington Center
Wed 09:20:07 PM 37.4519 -80.7325 29° Northeast 155 178 7,000  Level Washington Center
Wed 09:21:08 PM 37.4925 -80.7067 27° Northeast 155 178 7,000  Level Washington Center
Wed 09:22:09 PM 37.5314 -80.6803 28° Northeast 155 178 7,000  Level Washington Center
Wed 09:23:06 PM 37.5697 -80.6567 26° Northeast 155 178 7,000  Level Washington Center
Wed 09:25:07 PM 37.6514 -80.6044 27° Northeast 155 178 7,000  Level Washington Center
Wed 09:26:08 PM 37.6919 -80.5783 27° Northeast 155 178 7,000  Level Washington Center
Wed 09:27:06 PM 37.7306 -80.5547 26° Northeast 155 178 7,000  Level Washington Center
Wed 09:28:06 PM 37.7647 -80.5333 26° Northeast 155 178 7,000 99 Level Washington Center
Wed 09:29:07 PM 37.8033 -80.5094 26° Northeast 155 178 7,200 250 Climbing Washington Center
Wed 09:30:06 PM 37.8397 -80.4856 27° Northeast 150 173 7,500 151 Climbing Washington Center
Wed 09:31:06 PM 37.8764 -80.4589 30° Northeast 150 173 7,500  Level Washington Center
Wed 09:32:07 PM 37.9211 -80.4328 25° Northeast 150 173 7,500  Level Washington Center
Wed 09:33:07 PM 37.9597 -80.4064 28° Northeast 150 173 7,500  Level Washington Center
Wed 09:34:08 PM 38.0003 -80.3828 25° Northeast 155 178 7,500  Level Washington Center
Wed 09:35:06 PM 38.0389 -80.3561 29° Northeast 155 178 7,500  Level Washington Center
Wed 09:36:07 PM 38.0775 -80.3297 28° Northeast 155 178 7,500  Level Washington Center
Wed 09:37:07 PM 38.1139 -80.3081 25° Northeast 155 178 7,500  Level Washington Center
Wed 09:38:08 PM 38.1525 -80.2842 26° Northeast 155 178 7,500  Level Washington Center
Wed 09:39:09 PM 38.1908 -80.2600 26° Northeast 155 178 7,500  Level Washington Center
Wed 09:40:06 PM 38.2294 -80.2361 26° Northeast 155 178 7,500  Level Washington Center
Wed 09:41:07 PM 38.2681 -80.2067 31° Northeast 155 178 7,500  Level Washington Center
Wed 09:42:07 PM 38.3086 -80.1828 25° Northeast 155 178 7,500  Level Washington Center
Wed 09:43:08 PM 38.3450 -80.1558 30° Northeast 155 178 7,500  Level Washington Center
Wed 09:44:08 PM 38.3833 -80.1344 24° Northeast 155 178 7,500  Level Washington Center
Wed 09:45:06 PM 38.4175 -80.1128 26° Northeast 155 178 7,500  Level Washington Center
Wed 09:46:07 PM 38.4583 -80.0861 27° Northeast 155 178 7,500  Level Washington Center
Wed 09:52:45 PM 38.7181 -79.9097 27° Northeast 162 186 7,500  Level Cleveland Center
Wed 09:53:47 PM 38.7578 -79.8817 29° Northeast 162 186 7,500  Level Cleveland Center
Wed 09:54:48 PM 38.7972 -79.8569 26° Northeast 162 186 7,500  Level Cleveland Center
Wed 09:56:51 PM 38.8764 -79.8022 28° Northeast 161 185 7,500  Level Cleveland Center
Wed 09:57:00 PM 38.8654 -79.7911 27° Northeast  Level FlightAware Approximate
Wed 09:57:53 PM 38.9169 -79.7761 27° Northeast 162 186 7,500  Level Cleveland Center
Wed 09:58:00 PM 38.9035 -79.7658 27° Northeast  Level FlightAware Approximate
Wed 09:58:54 PM 38.9575 -79.7481 28° Northeast 162 186 7,500  Level Cleveland Center
Wed 09:59:56 PM 39.0067 -79.7164 27° Northeast 162 186 7,500  Level Cleveland Center
Wed 10:00:57 PM 39.0472 -79.6914 26° Northeast 162 186 7,500  Level Cleveland Center
Wed 10:01:59 PM 39.0878 -79.6644 27° Northeast 162 186 7,500  Level Cleveland Center
Wed 10:04:02 PM 39.1694 -79.6067 29° Northeast 164 189 7,500  Level Cleveland Center
Wed 10:05:04 PM 39.2100 -79.5789 28° Northeast 165 190 7,500  Level Cleveland Center
Wed 10:06:05 PM 39.2508 -79.5511 28° Northeast 165 190 7,500  Level Cleveland Center
Wed 10:07:07 PM 39.2989 -79.5206 26° Northeast 165 190 7,500  Level Cleveland Center
Wed 10:08:08 PM 39.3397 -79.4928 28° Northeast 165 190 7,500  Level Cleveland Center
Wed 10:09:09 PM 39.3794 -79.4644 29° Northeast 165 190 7,500  Level Cleveland Center
Wed 10:09:29 PM 39.3939 -79.4550 27° Northeast 165 190 7,500  Level Cleveland Center
Wed 10:09:47 PM 39.4072 -79.4461 27° Northeast 164 189 7,500  Level Cleveland Center
Wed 10:10:11 PM 39.4206 -79.4372 27° Northeast 165 190 7,500  Level Cleveland Center
Wed 10:10:47 PM 39.4472 -79.4194 27° Northeast 167 192 7,500  Level Cleveland Center
Wed 10:11:12 PM 39.4611 -79.4119 23° Northeast 165 190 7,500  Level Cleveland Center
Wed 10:11:42 PM 39.4850 -79.3950 29° Northeast 168 193 7,500  Level Cleveland Center
Wed 10:12:14 PM 39.5031 -79.3833 26° Northeast 166 191 7,500  Level Cleveland Center
Wed 10:12:43 PM 39.5272 -79.3686 25° Northeast 168 193 7,500  Level Cleveland Center
Wed 10:13:15 PM 39.5433 -79.3544 34° Northeast 166 191 7,500  Level Cleveland Center
Wed 10:13:43 PM 39.5675 -79.3392 26° Northeast 168 193 7,500  Level Cleveland Center
Wed 10:14:17 PM 39.5850 -79.3256 31° Northeast 167 192 7,500  Level Cleveland Center
Wed 10:14:44 PM 39.6078 -79.3097 28° Northeast 168 193 7,500  Level Cleveland Center
Wed 10:15:18 PM 39.6339 -79.2917 28° Northeast 168 193 7,500 -200 Level Cleveland Center
Wed 10:15:44 PM 39.6522 -79.2808 24° Northeast 166 191 7,300 -581 Descending Cleveland Center
Wed 10:16:20 PM 39.6775 -79.2686 20° North 170 196 6,900 -492 Descending Cleveland Center
Wed 10:16:45 PM 39.6983 -79.2547 27° Northeast 178 205 6,800 -393 Descending Cleveland Center
Wed 10:17:21 PM 39.7214 -79.2381 29° Northeast 177 204 6,500 -590 Descending Cleveland Center
Wed 10:17:46 PM 39.7408 -79.2256 26° Northeast 180 207 6,200 -484 Descending Cleveland Center
Wed 10:18:23 PM 39.7650 -79.2053 33° Northeast 178 205 6,000 -500 Descending Cleveland Center
Wed 10:18:46 PM 39.7833 -79.1933 27° Northeast 180 207 5,700 -590 Descending Cleveland Center
Wed 10:19:24 PM 39.8086 -79.1756 28° Northeast 178 205 5,400 -590 Descending Cleveland Center
Wed 10:19:47 PM 39.8300 -79.1619 26° Northeast 175 201 5,100 -677 Descending Cleveland Center
Wed 10:20:26 PM 39.8514 -79.1469 28° Northeast 177 204 4,700 -492 Descending Cleveland Center
Wed 10:20:48 PM 39.8722 -79.1325 28° Northeast 175 201 4,600 -98 Descending Cleveland Center
Wed 10:21:27 PM 39.8931 -79.1175 29° Northeast 175 201 4,600 -300 Level Cleveland Center
Wed 10:21:48 PM 39.9122 -79.1056 26° Northeast 168 193 4,300 -590 Descending Cleveland Center
Wed 10:22:28 PM 39.9350 -79.0903 27° Northeast 172 198 4,000 -492 Descending Cleveland Center
Wed 10:22:49 PM 39.9544 -79.0761 29° Northeast 166 191 3,800 -581 Descending Cleveland Center
Wed 10:23:30 PM 39.9822 -79.0572 28° Northeast 166 191 3,400 -393 Descending Cleveland Center
Wed 10:23:50 PM 39.9944 -79.0489 28° Northeast 156 180 3,400 -98 Level Cleveland Center
Wed 10:24:31 PM 40.0181 -79.0333 27° Northeast 148 170 3,300  Descending Cleveland Center
Wed 10:24:50 PM 40.0200 -79.0197 79° East 124 143 3,400 97 Climbing Cleveland Center
Wed 10:25:33 PM 40.0308 -78.9928 62° Northeast 132 152 3,400 -98 Level Cleveland Center
Wed 10:25:51 PM 40.0356 -78.9836 56° Northeast 105 121 3,300 -538 Descending Cleveland Center
Wed 10:26:51 PM 40.0506 -78.9803 10° North 75 86 2,700 -600 Descending Cleveland Center

Login

Don't have an account? Register now (free) for customized features, flight alerts, and more!